createdAt,value
2024-01-05T00:00:04.848Z,7.63
2024-01-05T00:02:34.066Z,7.70
2024-01-05T00:05:00.727Z,7.73
2024-01-05T00:07:27.372Z,7.61
2024-01-05T00:09:54.067Z,7.75
2024-01-05T00:12:20.843Z,7.64
2024-01-05T00:14:48.558Z,7.58
2024-01-05T00:17:15.242Z,7.72
2024-01-05T00:19:41.981Z,7.74
2024-01-05T00:22:08.662Z,7.79
2024-01-05T00:24:37.252Z,7.84
2024-01-05T00:27:04.745Z,7.75
2024-01-05T00:29:31.473Z,7.91
2024-01-05T00:31:58.003Z,7.77
2024-01-05T00:34:24.795Z,7.79
2024-01-05T00:36:51.415Z,7.66
2024-01-05T00:39:18.000Z,7.59
2024-01-05T00:41:48.924Z,7.66
2024-01-05T00:44:15.795Z,7.62
2024-01-05T00:46:42.688Z,7.53
2024-01-05T00:49:09.721Z,7.52
2024-01-05T00:51:36.493Z,7.41
2024-01-05T00:54:03.185Z,7.46
2024-01-05T00:56:29.874Z,7.53
2024-01-05T00:58:56.487Z,7.44
2024-01-05T01:01:23.296Z,7.51
2024-01-05T01:03:50.096Z,7.66
2024-01-05T01:06:16.855Z,7.65
2024-01-05T01:08:43.518Z,7.66
2024-01-05T01:11:15.133Z,7.69
2024-01-05T01:13:42.719Z,7.76
2024-01-05T01:16:09.820Z,7.74
2024-01-05T01:18:36.717Z,7.80
2024-01-05T01:21:03.515Z,7.85
2024-01-05T01:23:30.344Z,7.84
2024-01-05T01:25:57.015Z,7.92
2024-01-05T01:28:23.599Z,7.97
2024-01-05T01:30:50.497Z,8.07
2024-01-05T01:33:17.595Z,8.05
2024-01-05T01:35:44.416Z,8.02
2024-01-05T01:38:11.112Z,8.14
2024-01-05T01:40:37.925Z,8.24
2024-01-05T01:43:04.986Z,8.22
2024-01-05T01:45:31.920Z,8.38
2024-01-05T01:47:58.829Z,8.37
2024-01-05T01:50:26.001Z,8.27
2024-01-05T01:52:53.545Z,8.51
2024-01-05T01:55:20.384Z,8.50
2024-01-05T01:57:47.651Z,8.44
2024-01-05T02:00:17.709Z,8.50
2024-01-05T02:02:47.502Z,8.53
2024-01-05T02:05:14.310Z,8.37
2024-01-05T02:07:42.952Z,8.52
2024-01-05T02:10:09.631Z,8.40
2024-01-05T02:12:36.361Z,8.35
2024-01-05T02:15:03.327Z,8.43
2024-01-05T02:17:31.683Z,8.36
2024-01-05T02:19:58.834Z,8.38
2024-01-05T02:22:30.301Z,8.40
2024-01-05T02:24:58.575Z,8.38
2024-01-05T02:27:26.265Z,8.38
2024-01-05T02:29:52.905Z,8.29
2024-01-05T02:32:19.624Z,8.44
2024-01-05T02:34:46.297Z,8.39
2024-01-05T02:37:13.052Z,8.35
2024-01-05T02:39:39.796Z,8.43
2024-01-05T02:42:06.606Z,8.21
2024-01-05T02:44:33.189Z,8.34
2024-01-05T02:46:59.878Z,8.44
2024-01-05T02:49:26.593Z,8.37
2024-01-05T02:51:53.256Z,8.41
2024-01-05T02:54:19.928Z,8.39
2024-01-05T02:56:46.615Z,8.45
2024-01-05T02:59:13.379Z,8.31
2024-01-05T03:01:40.037Z,8.43
2024-01-05T03:04:06.839Z,8.43
2024-01-05T03:06:33.698Z,8.52
2024-01-05T03:09:00.968Z,8.49
2024-01-05T03:11:27.695Z,8.46
2024-01-05T03:13:54.277Z,8.44
2024-01-05T03:16:20.910Z,8.48
2024-01-05T03:18:47.691Z,8.47
2024-01-05T03:21:14.542Z,8.39
2024-01-05T03:23:41.192Z,8.50
2024-01-05T03:26:10.949Z,8.53
2024-01-05T03:28:39.489Z,8.56
2024-01-05T03:31:11.280Z,8.38
2024-01-05T03:33:38.074Z,8.50
2024-01-05T03:36:05.098Z,8.53
2024-01-05T03:38:31.700Z,8.55
2024-01-05T03:40:58.446Z,8.52
2024-01-05T03:43:25.386Z,8.57
2024-01-05T03:45:52.078Z,8.53
2024-01-05T03:48:18.863Z,8.55
2024-01-05T03:50:45.749Z,8.57
2024-01-05T03:53:12.919Z,8.60
2024-01-05T03:55:39.514Z,8.50
2024-01-05T03:58:07.675Z,8.64
2024-01-05T04:00:34.553Z,8.65
2024-01-05T04:03:01.439Z,8.61
2024-01-05T04:05:28.205Z,8.66
2024-01-05T04:07:54.881Z,8.57
2024-01-05T04:10:21.529Z,8.64
2024-01-05T04:12:48.184Z,8.58
2024-01-05T04:15:15.320Z,8.63
2024-01-05T04:17:42.039Z,8.69
2024-01-05T04:20:10.052Z,8.65
2024-01-05T04:22:37.031Z,8.59
2024-01-05T04:25:03.920Z,8.68
2024-01-05T04:27:30.685Z,8.60
2024-01-05T04:29:57.540Z,8.54
2024-01-05T04:32:24.731Z,8.57
2024-01-05T04:34:51.304Z,8.55
2024-01-05T04:37:17.967Z,8.46
2024-01-05T04:39:44.954Z,8.51
2024-01-05T04:42:13.091Z,8.51
2024-01-05T04:44:39.868Z,8.28
2024-01-05T04:47:06.505Z,8.36
2024-01-05T04:49:35.456Z,8.37
2024-01-05T04:52:02.347Z,8.38
2024-01-05T04:54:29.241Z,8.42
2024-01-05T04:56:55.990Z,8.40
2024-01-05T04:59:23.405Z,8.41
2024-01-05T05:01:50.093Z,8.46
2024-01-05T05:04:18.961Z,8.40
2024-01-05T05:06:45.849Z,8.28
2024-01-05T05:09:13.862Z,8.39
2024-01-05T05:11:41.542Z,8.41
2024-01-05T05:14:08.443Z,8.27
2024-01-05T05:16:36.383Z,8.30
2024-01-05T05:19:03.369Z,8.40
2024-01-05T05:21:30.345Z,8.37
2024-01-05T05:23:57.202Z,8.42
2024-01-05T05:26:24.182Z,8.40
2024-01-05T05:28:50.875Z,8.39
2024-01-05T05:31:17.723Z,8.40
2024-01-05T05:33:44.476Z,8.40
2024-01-05T05:36:11.194Z,8.37
2024-01-05T05:38:37.850Z,8.51
2024-01-05T05:41:04.656Z,8.52
2024-01-05T05:43:31.329Z,8.50
2024-01-05T05:45:58.013Z,8.48
2024-01-05T05:48:25.371Z,8.45
2024-01-05T05:50:52.361Z,8.52
2024-01-05T05:53:19.184Z,8.44
2024-01-05T05:55:45.841Z,8.43
2024-01-05T05:58:12.478Z,8.53
2024-01-05T06:00:39.232Z,8.54
2024-01-05T06:03:08.391Z,8.40
2024-01-05T06:05:37.218Z,8.46
2024-01-05T06:08:04.109Z,8.50
2024-01-05T06:10:30.825Z,8.47
2024-01-05T06:12:57.510Z,8.34
2024-01-05T06:15:24.167Z,8.45
2024-01-05T06:17:50.941Z,8.36
2024-01-05T06:20:17.555Z,8.39
2024-01-05T06:22:44.363Z,8.35
2024-01-05T06:25:11.031Z,8.33
2024-01-05T06:27:39.439Z,8.30
2024-01-05T06:30:07.922Z,8.26
2024-01-05T06:32:34.711Z,8.33
2024-01-05T06:35:01.379Z,8.31
2024-01-05T06:37:30.237Z,8.41
2024-01-05T06:39:57.299Z,8.36
2024-01-05T06:42:23.952Z,8.30
2024-01-05T06:44:51.552Z,8.34
2024-01-05T06:47:18.369Z,8.20
2024-01-05T06:49:45.116Z,8.33
2024-01-05T06:52:11.822Z,8.27
2024-01-05T06:54:39.116Z,8.32
2024-01-05T06:57:08.438Z,8.37
2024-01-05T06:59:37.590Z,8.40
2024-01-05T07:02:05.219Z,8.41
2024-01-05T07:04:32.048Z,8.46
2024-01-05T07:06:58.757Z,8.46
2024-01-05T07:09:26.161Z,8.39
2024-01-05T07:11:53.252Z,8.35
2024-01-05T07:14:19.933Z,8.43
2024-01-05T07:16:48.389Z,8.38
2024-01-05T07:19:15.898Z,8.44
2024-01-05T07:21:45.560Z,8.51
2024-01-05T07:24:19.869Z,8.48
2024-01-05T07:26:46.611Z,8.53
2024-01-05T07:29:13.381Z,8.64
2024-01-05T07:31:40.021Z,8.65
2024-01-05T07:34:06.985Z,8.83
2024-01-05T07:36:34.030Z,8.79
2024-01-05T07:39:01.018Z,8.78
2024-01-05T07:41:28.461Z,8.84
2024-01-05T07:43:55.223Z,8.84
2024-01-05T07:46:23.515Z,8.81
2024-01-05T07:48:50.322Z,8.70
2024-01-05T07:51:20.434Z,8.85
2024-01-05T07:53:49.742Z,8.82
2024-01-05T07:56:18.463Z,8.94
2024-01-05T07:58:45.757Z,8.95
2024-01-05T08:01:19.455Z,8.87
2024-01-05T08:03:47.118Z,8.90
2024-01-05T08:06:17.719Z,8.92
2024-01-05T08:08:48.746Z,8.80
2024-01-05T08:11:15.684Z,8.89
2024-01-05T08:13:43.457Z,8.74
2024-01-05T08:16:11.343Z,8.80
2024-01-05T08:18:38.879Z,8.82
2024-01-05T08:21:06.210Z,8.81
2024-01-05T08:23:33.254Z,8.66
2024-01-05T08:26:00.097Z,8.80
2024-01-05T08:28:27.249Z,8.78
2024-01-05T08:30:57.334Z,8.69
2024-01-05T08:33:24.501Z,8.67
2024-01-05T08:35:51.612Z,8.70
2024-01-05T08:38:18.228Z,8.61
2024-01-05T08:40:45.738Z,8.58
2024-01-05T08:43:12.575Z,8.65
2024-01-05T08:45:39.488Z,8.56
2024-01-05T08:48:06.612Z,8.55
2024-01-05T08:50:35.852Z,8.48
2024-01-05T08:53:04.539Z,8.49
2024-01-05T08:55:31.206Z,8.51
2024-01-05T08:57:58.389Z,8.34
2024-01-05T09:00:26.110Z,8.39
2024-01-05T09:02:53.268Z,8.36
2024-01-05T09:05:20.541Z,8.41
2024-01-05T09:07:48.776Z,8.34
2024-01-05T09:10:16.400Z,8.39
2024-01-05T09:12:43.154Z,8.37
2024-01-05T09:15:10.122Z,8.39
2024-01-05T09:17:36.937Z,8.30
2024-01-05T09:20:04.882Z,8.19
2024-01-05T09:22:32.001Z,8.14
2024-01-05T09:24:58.841Z,7.94
2024-01-05T09:27:25.578Z,7.99
2024-01-05T09:29:52.334Z,7.53
2024-01-05T09:32:19.216Z,7.57
2024-01-05T09:34:45.944Z,7.44
2024-01-05T09:37:12.589Z,7.24
2024-01-05T09:39:39.407Z,7.11
2024-01-05T09:42:07.109Z,7.00
2024-01-05T09:44:33.873Z,6.94
2024-01-05T09:47:00.595Z,6.99
2024-01-05T09:49:27.502Z,6.95
2024-01-05T09:51:57.091Z,6.84
2024-01-05T09:54:23.831Z,7.04
2024-01-05T09:56:51.248Z,7.07
2024-01-05T09:59:20.113Z,6.92
2024-01-05T10:01:50.995Z,7.03
2024-01-05T10:04:20.186Z,7.01
2024-01-05T10:06:46.954Z,6.97
2024-01-05T10:09:13.677Z,6.98
2024-01-05T10:11:43.324Z,6.95
2024-01-05T10:14:13.336Z,6.93
2024-01-05T10:16:40.632Z,6.90
2024-01-05T10:19:16.007Z,6.97
2024-01-05T10:21:45.286Z,6.91
2024-01-05T10:24:24.469Z,6.96
2024-01-05T10:27:05.640Z,7.14
2024-01-05T10:29:34.019Z,7.24
2024-01-05T10:32:14.259Z,7.33
2024-01-05T10:34:51.414Z,7.33
2024-01-05T10:37:20.292Z,7.43
2024-01-05T10:39:48.313Z,7.50
2024-01-05T10:42:36.795Z,7.64
2024-01-05T10:45:04.342Z,7.63
2024-01-05T10:47:31.653Z,7.76
2024-01-05T10:49:59.093Z,7.88
2024-01-05T10:52:33.369Z,7.92
2024-01-05T10:55:04.255Z,7.84
2024-01-05T10:57:31.896Z,7.94
2024-01-05T10:59:58.633Z,7.99
2024-01-05T11:02:41.750Z,7.95
2024-01-05T11:05:14.829Z,7.73
2024-01-05T11:07:43.467Z,7.60
2024-01-05T11:10:16.234Z,7.70
2024-01-05T11:12:42.898Z,7.64
2024-01-05T11:15:42.561Z,7.60
2024-01-05T11:18:48.045Z,7.61
2024-01-05T11:21:20.488Z,7.59
2024-01-05T11:23:48.542Z,7.70
2024-01-05T11:26:33.385Z,7.71
2024-01-05T11:29:00.016Z,7.67
2024-01-05T11:31:52.552Z,7.83
2024-01-05T11:34:37.213Z,7.74
2024-01-05T11:37:07.555Z,7.72
2024-01-05T11:39:54.793Z,7.80
2024-01-05T11:42:24.647Z,7.86
2024-01-05T11:44:56.076Z,7.75
2024-01-05T11:47:42.503Z,7.95
2024-01-05T11:50:29.341Z,8.00
2024-01-05T11:53:18.008Z,8.06
2024-01-05T11:55:52.813Z,8.09
2024-01-05T11:58:22.050Z,8.03
2024-01-05T12:00:50.246Z,8.10
2024-01-05T12:03:18.530Z,8.02
2024-01-05T12:05:51.059Z,8.11
2024-01-05T12:08:19.622Z,8.18
2024-01-05T12:10:46.285Z,8.16
2024-01-05T12:13:12.904Z,8.20
2024-01-05T12:15:47.082Z,8.07
2024-01-05T12:18:27.896Z,8.17
2024-01-05T12:21:02.758Z,8.25
2024-01-05T12:23:31.667Z,8.01
2024-01-05T12:26:05.793Z,7.94
2024-01-05T12:28:34.863Z,7.87
2024-01-05T12:31:03.419Z,7.63
2024-01-05T12:33:32.510Z,7.70
2024-01-05T12:35:59.322Z,7.61
2024-01-05T12:38:29.696Z,7.50
2024-01-05T12:41:10.836Z,7.65
2024-01-05T12:43:38.074Z,7.54
2024-01-05T12:46:06.386Z,7.61
2024-01-05T12:48:34.264Z,7.69
2024-01-05T12:51:07.953Z,7.72
2024-01-05T12:53:35.399Z,7.68
2024-01-05T12:56:11.959Z,7.74
2024-01-05T12:58:43.295Z,7.70
2024-01-05T13:01:18.647Z,7.67
2024-01-05T13:03:53.753Z,7.57
2024-01-05T13:06:23.170Z,7.41
2024-01-05T13:08:50.428Z,7.39
2024-01-05T13:11:21.403Z,7.37
2024-01-05T13:13:52.574Z,7.21
2024-01-05T13:16:19.603Z,7.28
2024-01-05T13:18:46.730Z,7.26
2024-01-05T13:21:13.938Z,7.27
2024-01-05T13:23:42.037Z,7.16
2024-01-05T13:26:09.015Z,7.21
2024-01-05T13:28:36.953Z,7.32
2024-01-05T13:31:04.743Z,7.34
2024-01-05T13:33:32.719Z,7.29
2024-01-05T13:35:59.418Z,7.28
2024-01-05T13:38:26.058Z,7.35
2024-01-05T13:40:52.679Z,7.32
2024-01-05T13:43:19.332Z,7.30
2024-01-05T13:45:46.835Z,7.34
2024-01-05T13:48:13.639Z,7.35
2024-01-05T13:50:40.362Z,7.26
2024-01-05T13:53:12.098Z,7.38
2024-01-05T13:55:38.959Z,7.26
2024-01-05T13:58:05.629Z,7.34
2024-01-05T14:00:32.352Z,7.29
2024-01-05T14:02:59.195Z,7.32
2024-01-05T14:05:25.975Z,7.38
2024-01-05T14:07:52.667Z,7.39
2024-01-05T14:10:19.290Z,7.40
2024-01-05T14:12:46.285Z,7.40
2024-01-05T14:15:14.720Z,7.39
2024-01-05T14:17:41.538Z,7.42
2024-01-05T14:20:10.064Z,7.40
2024-01-05T14:22:37.144Z,7.37
2024-01-05T14:25:05.767Z,7.35
2024-01-05T14:27:32.681Z,7.39
2024-01-05T14:29:59.761Z,7.36
2024-01-05T14:32:26.505Z,7.32
2024-01-05T14:34:53.327Z,7.34
2024-01-05T14:37:20.135Z,7.36
2024-01-05T14:39:46.854Z,7.36
2024-01-05T14:42:13.978Z,7.36
2024-01-05T14:44:40.892Z,7.30
2024-01-05T14:47:08.735Z,7.29
2024-01-05T14:49:35.543Z,7.28
2024-01-05T14:52:02.436Z,7.30
2024-01-05T14:54:29.790Z,7.27
2024-01-05T14:56:56.617Z,7.30
2024-01-05T14:59:23.516Z,7.33
2024-01-05T15:01:50.569Z,7.31
2024-01-05T15:04:17.808Z,7.30
2024-01-05T15:06:44.650Z,7.34
2024-01-05T15:09:13.144Z,7.37
2024-01-05T15:11:40.898Z,7.22
2024-01-05T15:14:08.066Z,7.29
2024-01-05T15:16:43.992Z,7.26
2024-01-05T15:19:11.615Z,7.29
2024-01-05T15:21:38.470Z,7.28
2024-01-05T15:24:05.542Z,7.29
2024-01-05T15:26:32.467Z,7.29
2024-01-05T15:29:03.966Z,7.34
2024-01-05T15:31:31.209Z,7.31
2024-01-05T15:33:58.221Z,7.35
2024-01-05T15:36:25.715Z,7.34
2024-01-05T15:38:53.016Z,7.27
2024-01-05T15:41:20.724Z,7.31
2024-01-05T15:43:49.114Z,7.26
2024-01-05T15:46:17.855Z,7.23
2024-01-05T15:48:45.109Z,7.23
2024-01-05T15:51:16.768Z,7.29
2024-01-05T15:53:44.069Z,7.29
2024-01-05T15:56:11.525Z,7.27
2024-01-05T15:58:39.504Z,7.17
2024-01-05T16:01:07.244Z,7.19
2024-01-05T16:03:34.417Z,7.16
2024-01-05T16:06:01.603Z,7.28
2024-01-05T16:08:29.243Z,7.24
2024-01-05T16:10:56.824Z,7.29
2024-01-05T16:13:24.060Z,7.29
2024-01-05T16:15:50.876Z,7.27
2024-01-05T16:18:18.438Z,7.24
2024-01-05T16:20:47.249Z,7.31
2024-01-05T16:23:14.156Z,7.29
2024-01-05T16:25:44.146Z,7.29
2024-01-05T16:28:10.873Z,7.31
2024-01-05T16:30:38.362Z,7.31
2024-01-05T16:33:05.843Z,7.28
2024-01-05T16:35:32.940Z,7.37
2024-01-05T16:37:59.774Z,7.39
2024-01-05T16:40:26.678Z,7.39
2024-01-05T16:42:53.469Z,7.40
2024-01-05T16:45:20.381Z,7.44
2024-01-05T16:47:47.235Z,7.48
2024-01-05T16:50:17.102Z,7.49
2024-01-05T16:52:44.614Z,7.41
2024-01-05T16:55:11.375Z,7.50
2024-01-05T16:57:38.330Z,7.50
2024-01-05T17:00:05.960Z,7.52
2024-01-05T17:02:33.354Z,7.42
2024-01-05T17:05:00.442Z,7.55
2024-01-05T17:07:28.254Z,7.55
2024-01-05T17:09:55.552Z,7.52
2024-01-05T17:12:22.449Z,7.53
2024-01-05T17:14:49.388Z,7.50
2024-01-05T17:17:16.201Z,7.29
2024-01-05T17:19:43.209Z,7.53
2024-01-05T17:22:10.872Z,7.50
2024-01-05T17:24:40.916Z,7.52
2024-01-05T17:27:14.011Z,7.43
2024-01-05T17:29:41.091Z,7.51
2024-01-05T17:32:07.934Z,7.54
2024-01-05T17:34:35.399Z,7.45
2024-01-05T17:37:02.221Z,7.54
2024-01-05T17:39:29.094Z,7.54
2024-01-05T17:41:55.930Z,7.53
2024-01-05T17:44:22.770Z,7.63
2024-01-05T17:46:49.630Z,7.69
2024-01-05T17:49:16.612Z,7.69
2024-01-05T17:51:43.515Z,7.61
2024-01-05T17:54:10.282Z,7.51
2024-01-05T17:56:37.312Z,7.64
2024-01-05T17:59:04.735Z,7.63
2024-01-05T18:01:33.699Z,7.67
2024-01-05T18:04:00.908Z,7.72
2024-01-05T18:06:28.251Z,7.75
2024-01-05T18:08:55.123Z,7.68
2024-01-05T18:11:25.997Z,7.75
2024-01-05T18:13:53.920Z,7.81
2024-01-05T18:16:25.305Z,7.82
2024-01-05T18:18:52.613Z,7.79
2024-01-05T18:21:22.417Z,7.81
2024-01-05T18:23:49.301Z,7.86
2024-01-05T18:26:23.998Z,7.82
2024-01-05T18:28:51.745Z,7.76
2024-01-05T18:31:30.098Z,7.78
2024-01-05T18:33:57.510Z,7.87
2024-01-05T18:36:24.719Z,7.91
2024-01-05T18:38:51.692Z,7.86
2024-01-05T18:41:34.888Z,7.91
2024-01-05T18:44:02.206Z,7.78
2024-01-05T18:46:29.419Z,7.90
2024-01-05T18:48:56.327Z,7.86
2024-01-05T18:51:23.245Z,7.81
2024-01-05T18:53:50.079Z,7.70
2024-01-05T18:56:16.977Z,7.82
2024-01-05T18:58:43.849Z,7.68
2024-01-05T19:01:11.810Z,7.78
2024-01-05T19:03:38.853Z,7.75
2024-01-05T19:06:06.331Z,7.77
2024-01-05T19:08:33.442Z,7.69
2024-01-05T19:11:00.148Z,7.73
2024-01-05T19:13:27.097Z,7.77
2024-01-05T19:15:53.985Z,7.78
2024-01-05T19:18:20.990Z,7.79
2024-01-05T19:20:47.854Z,7.75
2024-01-05T19:23:14.739Z,7.69
2024-01-05T19:25:41.551Z,7.76
2024-01-05T19:28:08.470Z,7.81
2024-01-05T19:30:35.347Z,7.77
2024-01-05T19:33:02.152Z,7.80
2024-01-05T19:35:28.886Z,7.76
2024-01-05T19:37:56.745Z,7.79
2024-01-05T19:40:23.441Z,7.80
2024-01-05T19:42:50.059Z,7.86
2024-01-05T19:45:17.029Z,7.83
2024-01-05T19:47:45.533Z,7.83
2024-01-05T19:50:12.292Z,7.80
2024-01-05T19:52:38.962Z,7.86
2024-01-05T19:55:08.309Z,7.93
2024-01-05T19:57:35.987Z,7.92
2024-01-05T20:00:04.242Z,7.76
2024-01-05T20:02:31.201Z,7.88
2024-01-05T20:04:58.002Z,7.74
2024-01-05T20:07:25.826Z,7.80
2024-01-05T20:09:53.776Z,7.85
2024-01-05T20:12:20.889Z,7.88
2024-01-05T20:14:47.884Z,7.94
2024-01-05T20:17:14.742Z,7.89
2024-01-05T20:19:42.596Z,7.91
2024-01-05T20:22:09.644Z,7.95
2024-01-05T20:24:36.471Z,7.94
2024-01-05T20:27:03.999Z,7.98
2024-01-05T20:29:31.086Z,7.94
2024-01-05T20:31:57.893Z,7.90
2024-01-05T20:34:26.073Z,7.92
2024-01-05T20:36:55.296Z,7.92
2024-01-05T20:39:22.321Z,7.86
2024-01-05T20:41:50.385Z,7.92
2024-01-05T20:44:18.397Z,7.95
2024-01-05T20:46:48.361Z,7.97
2024-01-05T20:49:18.510Z,7.90
2024-01-05T20:51:46.759Z,7.75
2024-01-05T20:54:14.441Z,7.93
2024-01-05T20:56:41.315Z,7.92
2024-01-05T20:59:08.108Z,7.91
2024-01-05T21:01:41.439Z,7.82
2024-01-05T21:04:09.044Z,7.88
2024-01-05T21:06:44.817Z,7.86
2024-01-05T21:09:11.691Z,7.96
2024-01-05T21:11:38.594Z,8.04
2024-01-05T21:14:05.288Z,8.08
2024-01-05T21:16:31.956Z,8.05
2024-01-05T21:18:59.398Z,8.03
2024-01-05T21:21:28.782Z,8.06
2024-01-05T21:23:57.119Z,8.08
2024-01-05T21:26:24.136Z,8.04
2024-01-05T21:28:50.984Z,8.00
2024-01-05T21:31:17.927Z,7.90
2024-01-05T21:33:49.763Z,7.89
2024-01-05T21:36:16.680Z,7.99
2024-01-05T21:38:43.875Z,7.95
2024-01-05T21:41:10.708Z,7.86
2024-01-05T21:43:37.461Z,7.97
2024-01-05T21:46:04.397Z,7.95
2024-01-05T21:48:33.240Z,7.78
2024-01-05T21:51:00.367Z,7.81
2024-01-05T21:53:27.103Z,7.91
2024-01-05T21:55:54.804Z,7.81
2024-01-05T21:58:21.999Z,7.87
2024-01-05T22:00:49.081Z,7.94
2024-01-05T22:03:18.956Z,7.81
2024-01-05T22:05:46.536Z,7.79
2024-01-05T22:08:13.251Z,7.82
2024-01-05T22:10:39.869Z,7.81
2024-01-05T22:13:07.785Z,7.87
2024-01-05T22:15:34.794Z,7.93
2024-01-05T22:18:04.268Z,7.93
2024-01-05T22:20:31.057Z,7.90
2024-01-05T22:22:57.763Z,7.97
2024-01-05T22:25:24.469Z,7.89
2024-01-05T22:27:51.433Z,7.91
2024-01-05T22:30:18.694Z,7.95
2024-01-05T22:32:45.676Z,7.91
2024-01-05T22:35:12.747Z,7.96
2024-01-05T22:37:39.460Z,8.02
2024-01-05T22:40:07.382Z,7.96
2024-01-05T22:42:34.351Z,7.88
2024-01-05T22:45:01.046Z,7.93
2024-01-05T22:47:27.679Z,7.85
2024-01-05T22:49:54.542Z,7.68
2024-01-05T22:52:21.242Z,7.72
2024-01-05T22:54:47.877Z,7.72
2024-01-05T22:57:15.098Z,7.72
2024-01-05T22:59:41.823Z,7.69
2024-01-05T23:02:08.463Z,7.57
2024-01-05T23:04:35.661Z,7.58
2024-01-05T23:07:02.479Z,7.66
2024-01-05T23:09:29.304Z,7.56
2024-01-05T23:11:55.941Z,7.58
2024-01-05T23:14:22.668Z,7.64
2024-01-05T23:16:50.922Z,7.57
2024-01-05T23:19:17.639Z,7.55
2024-01-05T23:21:45.229Z,7.59
2024-01-05T23:24:11.951Z,7.48
2024-01-05T23:26:38.629Z,7.51
2024-01-05T23:29:05.344Z,7.62
2024-01-05T23:31:38.727Z,7.51
2024-01-05T23:34:15.026Z,7.61
2024-01-05T23:36:43.505Z,7.64
2024-01-05T23:39:10.203Z,7.62
2024-01-05T23:41:40.112Z,7.46
2024-01-05T23:44:08.371Z,7.59
2024-01-05T23:46:35.083Z,7.66
2024-01-05T23:49:01.843Z,7.54
2024-01-05T23:51:29.061Z,7.54
2024-01-05T23:53:56.388Z,7.54
2024-01-05T23:56:22.970Z,7.59
2024-01-05T23:58:49.610Z,7.45
